createdAt,value
2019-01-05T00:02:53.706Z,93.91
2019-01-05T00:05:42.042Z,93.92
2019-01-05T00:08:32.025Z,93.94
2019-01-05T00:11:29.291Z,93.94
2019-01-05T00:14:23.510Z,93.95
2019-01-05T00:17:15.722Z,93.96
2019-01-05T00:20:12.121Z,93.95
2019-01-05T00:23:01.189Z,93.96
2019-01-05T00:25:52.705Z,93.98
2019-01-05T00:28:43.928Z,93.98
2019-01-05T00:31:38.055Z,93.98
2019-01-05T00:34:34.466Z,94.01
2019-01-05T00:37:25.278Z,94.00
2019-01-05T00:40:29.229Z,94.01
2019-01-05T00:43:20.137Z,94.02
2019-01-05T00:46:14.734Z,94.01
2019-01-05T00:49:09.109Z,94.03
2019-01-05T00:52:07.470Z,94.03
2019-01-05T00:55:13.918Z,94.05
2019-01-05T00:58:07.995Z,94.06
2019-01-05T01:01:01.717Z,94.07
2019-01-05T01:03:53.151Z,94.08
2019-01-05T01:06:47.411Z,94.07
2019-01-05T01:09:37.458Z,94.09
2019-01-05T01:12:27.305Z,94.13
2019-01-05T01:15:30.782Z,94.14
2019-01-05T01:18:24.480Z,94.16
2019-01-05T01:21:21.779Z,94.17
2019-01-05T01:24:18.892Z,94.19
2019-01-05T01:27:09.088Z,94.22
2019-01-05T01:29:53.905Z,94.25
2019-01-05T01:32:48.171Z,94.27
2019-01-05T01:35:52.267Z,94.29
2019-01-05T01:39:22.185Z,94.33
2019-01-05T01:42:25.647Z,94.39
2019-01-05T01:45:14.722Z,94.45
2019-01-05T01:48:06.287Z,94.51
2019-01-05T01:50:56.266Z,94.57
2019-01-05T01:53:46.135Z,94.63
2019-01-05T01:56:36.092Z,94.69
2019-01-05T01:59:33.959Z,94.75
2019-01-05T02:02:21.692Z,94.77
2019-01-05T02:05:18.867Z,94.69
2019-01-05T02:08:10.864Z,94.69
2019-01-05T02:10:57.933Z,94.92
2019-01-05T02:13:55.359Z,94.89
2019-01-05T02:17:12.448Z,94.89
2019-01-05T02:20:57.726Z,94.90
2019-01-05T02:24:46.322Z,94.93
2019-01-05T02:28:16.889Z,94.98
2019-01-05T02:31:42.821Z,94.93
2019-01-05T02:35:40.025Z,94.97
2019-01-05T02:39:13.126Z,94.98
2019-01-05T02:42:38.513Z,94.98
2019-01-05T02:46:27.600Z,95.00
2019-01-05T02:50:20.972Z,94.99
2019-01-05T02:54:31.216Z,95.02
2019-01-05T02:58:24.759Z,95.06
2019-01-05T03:02:09.813Z,95.06
2019-01-05T03:05:42.328Z,95.08
2019-01-05T03:09:26.139Z,95.11
2019-01-05T03:13:07.994Z,95.15
2019-01-05T03:16:45.815Z,95.17
2019-01-05T03:20:37.125Z,95.20
2019-01-05T03:24:32.143Z,95.23
2019-01-05T03:28:15.516Z,95.27
2019-01-05T03:31:58.056Z,95.29
2019-01-05T03:35:59.579Z,95.32
2019-01-05T03:39:44.775Z,95.36
2019-01-05T03:43:39.712Z,95.38
2019-01-05T03:47:28.048Z,95.39
2019-01-05T03:51:28.388Z,95.44
2019-01-05T03:55:39.940Z,95.47
2019-01-05T03:59:51.799Z,95.51
2019-01-05T04:04:17.747Z,95.55
2019-01-05T04:08:12.226Z,95.58
2019-01-05T04:12:06.826Z,95.61
2019-01-05T04:15:56.524Z,95.63
2019-01-05T04:20:03.805Z,95.67
2019-01-05T04:23:51.300Z,94.62
2019-01-05T04:27:31.736Z,94.66
2019-01-05T04:31:12.908Z,94.68
2019-01-05T04:34:38.413Z,94.70
2019-01-05T04:38:25.235Z,94.74
2019-01-05T04:42:12.245Z,94.74
2019-01-05T04:46:19.245Z,94.76
2019-01-05T04:50:01.623Z,94.79
2019-01-05T04:54:13.861Z,94.81
2019-01-05T04:57:57.050Z,94.81
2019-01-05T05:02:10.727Z,94.82
2019-01-05T05:06:15.786Z,94.82
2019-01-05T05:10:09.022Z,94.82
2019-01-05T05:14:04.456Z,94.85
2019-01-05T05:17:31.504Z,94.87
2019-01-05T05:21:16.704Z,94.84
2019-01-05T05:24:50.328Z,94.84
2019-01-05T05:29:03.852Z,94.83
2019-01-05T05:32:50.153Z,94.87
2019-01-05T05:36:59.864Z,94.85
2019-01-05T05:40:43.125Z,94.86
2019-01-05T05:44:38.069Z,94.81
2019-01-05T05:48:20.570Z,94.79
2019-01-05T05:52:23.171Z,94.81
2019-01-05T05:56:18.112Z,94.83
2019-01-05T06:00:23.008Z,94.82
2019-01-05T06:04:08.807Z,94.82
2019-01-05T06:07:51.758Z,94.82
2019-01-05T06:11:44.799Z,94.83
2019-01-05T06:15:27.254Z,94.82
2019-01-05T06:19:20.522Z,94.82
2019-01-05T06:23:21.564Z,94.84
2019-01-05T06:26:55.976Z,94.83
2019-01-05T06:30:37.672Z,94.86
2019-01-05T06:34:05.837Z,94.89
2019-01-05T06:37:34.374Z,94.84
2019-01-05T06:41:13.206Z,94.82
2019-01-05T06:45:11.753Z,94.84
2019-01-05T06:49:02.603Z,94.83
2019-01-05T06:52:53.723Z,94.85
2019-01-05T06:56:42.146Z,94.86
2019-01-05T07:00:23.862Z,94.84
2019-01-05T07:04:34.778Z,94.82
2019-01-05T07:08:34.609Z,94.84
2019-01-05T07:12:30.100Z,94.84
2019-01-05T07:16:24.873Z,94.84
2019-01-05T07:20:33.429Z,94.83
2019-01-05T07:24:13.445Z,94.83
2019-01-05T07:27:57.994Z,94.82
2019-01-05T07:31:45.574Z,94.82
2019-01-05T07:35:54.119Z,94.83
2019-01-05T07:39:59.039Z,94.81
2019-01-05T07:43:50.166Z,94.81
2019-01-05T07:47:39.038Z,94.79
2019-01-05T07:51:43.932Z,94.79
2019-01-05T07:55:37.620Z,94.79
2019-01-05T07:59:26.493Z,94.77
2019-01-05T08:03:16.769Z,94.78
2019-01-05T08:07:21.793Z,94.77
2019-01-05T08:11:05.967Z,94.79
2019-01-05T08:15:45.744Z,94.78
2019-01-05T08:19:38.681Z,94.78
2019-01-05T08:23:09.623Z,94.78
2019-01-05T08:27:05.793Z,94.78
2019-01-05T08:31:16.084Z,94.78
2019-01-05T08:35:25.616Z,94.78
2019-01-05T08:39:42.182Z,94.77
2019-01-05T08:43:43.958Z,94.77
2019-01-05T08:47:17.912Z,94.76
2019-01-05T08:50:50.172Z,94.75
2019-01-05T08:54:26.936Z,94.78
2019-01-05T08:58:44.373Z,94.74
2019-01-05T09:02:32.283Z,94.74
2019-01-05T09:06:35.808Z,94.74
2019-01-05T09:10:41.604Z,94.73
2019-01-05T09:14:14.931Z,94.73
2019-01-05T09:17:54.540Z,94.74
2019-01-05T09:21:56.707Z,94.73
2019-01-05T09:25:42.179Z,94.73
2019-01-05T09:29:43.293Z,94.73
2019-01-05T09:33:51.923Z,94.73
2019-01-05T09:37:49.583Z,94.68
2019-01-05T09:41:41.191Z,94.68
2019-01-05T09:45:41.104Z,94.68
2019-01-05T09:49:26.577Z,94.66
2019-01-05T09:53:10.170Z,94.63
2019-01-05T09:56:54.138Z,94.61
2019-01-05T10:00:45.970Z,94.58
2019-01-05T10:04:31.112Z,94.58
2019-01-05T10:08:49.532Z,94.55
2019-01-05T10:12:21.683Z,94.53
2019-01-05T10:15:58.768Z,94.51
2019-01-05T10:19:28.654Z,94.46
2019-01-05T10:23:00.000Z,94.45
2019-01-05T10:26:48.827Z,94.43
2019-01-05T10:30:46.564Z,94.42
2019-01-05T10:34:36.361Z,94.42
2019-01-05T10:38:44.752Z,94.39
2019-01-05T10:42:15.638Z,94.41
2019-01-05T10:46:00.558Z,94.40
2019-01-05T10:49:49.187Z,94.37
2019-01-05T10:54:06.236Z,94.25
2019-01-05T10:58:39.557Z,94.25
2019-01-05T11:02:51.247Z,94.23
2019-01-05T11:06:36.849Z,94.17
2019-01-05T11:10:18.230Z,94.17
2019-01-05T11:14:23.371Z,94.13
2019-01-05T11:18:36.003Z,94.11
2019-01-05T11:21:52.961Z,94.05
2019-01-05T11:25:24.530Z,93.98
2019-01-05T11:29:18.115Z,93.93
2019-01-05T11:33:11.325Z,93.96
2019-01-05T11:37:03.070Z,93.93
2019-01-05T11:41:42.993Z,93.85
2019-01-05T11:45:47.392Z,93.58
2019-01-05T11:49:40.768Z,93.71
2019-01-05T11:53:34.565Z,93.68
2019-01-05T11:57:09.540Z,93.63
2019-01-05T12:00:52.291Z,93.58
2019-01-05T12:05:03.845Z,93.53
2019-01-05T12:08:58.562Z,93.46
2019-01-05T12:12:44.432Z,93.40
2019-01-05T12:16:59.883Z,93.36
2019-01-05T12:21:14.777Z,93.37
2019-01-05T12:25:37.737Z,93.28
2019-01-05T12:29:40.163Z,93.21
2019-01-05T12:33:44.977Z,93.16
2019-01-05T12:37:26.936Z,93.09
2019-01-05T12:41:18.979Z,93.02
2019-01-05T12:45:15.375Z,92.98
2019-01-05T12:49:06.122Z,92.94
2019-01-05T12:53:01.722Z,92.90
2019-01-05T12:56:40.510Z,92.84
2019-01-05T13:00:52.605Z,92.82
2019-01-05T13:05:07.984Z,92.76
2019-01-05T13:08:52.151Z,92.73
2019-01-05T13:12:49.366Z,92.68
2019-01-05T13:16:54.483Z,92.65
2019-01-05T13:20:55.199Z,92.62
2019-01-05T13:24:51.419Z,92.54
2019-01-05T13:28:51.704Z,92.48
2019-01-05T13:32:50.160Z,92.42
2019-01-05T13:36:45.263Z,92.38
2019-01-05T13:40:56.687Z,92.32
2019-01-05T13:45:09.581Z,92.31
2019-01-05T13:49:00.195Z,92.25
2019-01-05T13:52:41.057Z,92.21
2019-01-05T13:55:58.310Z,92.18
2019-01-05T13:59:08.018Z,92.16
2019-01-05T14:01:57.813Z,92.14
2019-01-05T14:04:52.129Z,92.12
2019-01-05T14:07:43.338Z,92.10
2019-01-05T14:10:44.152Z,92.03
2019-01-05T14:13:34.023Z,92.02
2019-01-05T14:16:25.580Z,92.00
2019-01-05T14:19:17.235Z,91.98
2019-01-05T14:22:14.501Z,91.96
2019-01-05T14:25:14.905Z,91.91
2019-01-05T14:28:00.167Z,91.88
2019-01-05T14:31:06.799Z,91.86
2019-01-05T14:34:07.311Z,91.83
2019-01-05T14:36:59.841Z,91.81
2019-01-05T14:39:50.354Z,91.78
2019-01-05T14:42:53.793Z,91.75
2019-01-05T14:45:57.095Z,91.73
2019-01-05T14:48:46.716Z,91.70
2019-01-05T14:51:34.771Z,91.66
2019-01-05T14:54:25.035Z,91.64
2019-01-05T14:57:19.191Z,91.62
2019-01-05T15:00:09.614Z,91.58
2019-01-05T15:03:07.077Z,91.56
2019-01-05T15:05:58.581Z,91.51
2019-01-05T15:08:48.537Z,91.49
2019-01-05T15:11:56.475Z,91.47
2019-01-05T15:14:53.626Z,91.47
2019-01-05T15:17:51.044Z,91.42
2019-01-05T15:20:52.998Z,91.40
2019-01-05T15:23:38.509Z,91.38
2019-01-05T15:26:28.579Z,91.35
2019-01-05T15:29:38.109Z,91.33
2019-01-05T15:32:32.081Z,91.30
2019-01-05T15:35:24.181Z,91.30
2019-01-05T15:38:16.117Z,91.23
2019-01-05T15:41:06.235Z,91.18
2019-01-05T15:44:09.320Z,91.15
2019-01-05T15:46:59.641Z,91.13
2019-01-05T15:50:00.083Z,91.08
2019-01-05T15:53:00.493Z,91.06
2019-01-05T15:55:54.675Z,91.03
2019-01-05T15:58:44.873Z,91.01
2019-01-05T16:01:35.118Z,90.99
2019-01-05T16:04:29.073Z,90.97
2019-01-05T16:07:19.514Z,90.95
2019-01-05T16:10:09.596Z,90.93
2019-01-05T16:12:59.580Z,90.86
2019-01-05T16:15:50.021Z,90.87
2019-01-05T16:18:40.062Z,90.84
2019-01-05T16:21:30.285Z,90.78
2019-01-05T16:24:27.506Z,90.76
2019-01-05T16:27:17.672Z,90.73
2019-01-05T16:30:20.969Z,90.67
2019-01-05T16:33:10.801Z,90.67
2019-01-05T16:36:01.841Z,90.66
2019-01-05T16:38:52.093Z,90.59
2019-01-05T16:42:01.774Z,90.54
2019-01-05T16:44:51.076Z,90.50
2019-01-05T16:47:41.211Z,90.43
2019-01-05T16:50:31.478Z,90.41
2019-01-05T16:53:21.776Z,90.32
2019-01-05T16:56:12.973Z,90.28
2019-01-05T16:59:10.197Z,90.22
2019-01-05T17:02:00.475Z,90.19
2019-01-05T17:04:50.355Z,90.16
2019-01-05T17:07:47.781Z,90.10
2019-01-05T17:10:38.306Z,90.09
2019-01-05T17:13:29.646Z,90.03
2019-01-05T17:16:26.812Z,90.01
2019-01-05T17:19:27.505Z,89.94
2019-01-05T17:22:21.852Z,89.91
2019-01-05T17:25:21.856Z,89.89
2019-01-05T17:28:11.728Z,89.86
2019-01-05T17:31:01.453Z,89.81
2019-01-05T17:34:10.873Z,89.79
2019-01-05T17:37:21.171Z,89.73
2019-01-05T17:40:09.406Z,89.68
2019-01-05T17:43:06.725Z,89.61
2019-01-05T17:46:07.141Z,89.53
2019-01-05T17:48:57.486Z,89.41
2019-01-05T17:51:48.750Z,89.34
2019-01-05T17:54:43.190Z,89.25
2019-01-05T17:57:40.506Z,89.21
2019-01-05T18:00:30.454Z,89.12
2019-01-05T18:03:19.554Z,89.11
2019-01-05T18:06:09.360Z,89.01
2019-01-05T18:09:00.239Z,88.98
2019-01-05T18:12:00.648Z,88.79
2019-01-05T18:14:50.572Z,88.74
2019-01-05T18:17:41.056Z,88.66
2019-01-05T18:20:38.322Z,88.62
2019-01-05T18:23:32.314Z,88.56
2019-01-05T18:26:31.091Z,88.44
2019-01-05T18:29:34.607Z,88.29
2019-01-05T18:32:24.206Z,88.21
2019-01-05T18:35:18.649Z,88.15
2019-01-05T18:38:09.954Z,88.11
2019-01-05T18:41:01.605Z,88.01
2019-01-05T18:44:10.963Z,87.98
2019-01-05T18:47:14.009Z,87.92
2019-01-05T18:50:01.485Z,87.85
2019-01-05T18:53:10.989Z,87.68
2019-01-05T18:56:02.361Z,87.60
2019-01-05T18:58:57.722Z,87.55
2019-01-05T19:02:07.325Z,87.54
2019-01-05T19:05:00.896Z,87.41
2019-01-05T19:08:03.924Z,87.36
2019-01-05T19:10:53.604Z,87.20
2019-01-05T19:13:40.001Z,87.13
2019-01-05T19:16:33.651Z,87.05
2019-01-05T19:19:27.600Z,86.97
2019-01-05T19:22:33.818Z,86.93
2019-01-05T19:25:26.120Z,86.90
2019-01-05T19:28:16.547Z,86.81
2019-01-05T19:31:14.186Z,86.71
2019-01-05T19:34:04.416Z,86.64
2019-01-05T19:37:04.335Z,86.39
2019-01-05T19:40:14.098Z,86.30
2019-01-05T19:43:14.221Z,86.23
2019-01-05T19:46:04.081Z,86.15
2019-01-05T19:48:58.445Z,86.07
2019-01-05T19:52:08.406Z,86.02
2019-01-05T19:55:08.292Z,85.96
2019-01-05T19:57:58.238Z,85.90
2019-01-05T20:01:01.440Z,85.80
2019-01-05T20:04:01.828Z,85.75
2019-01-05T20:06:51.974Z,85.70
2019-01-05T20:09:55.001Z,85.66
2019-01-05T20:12:45.264Z,85.62
2019-01-05T20:15:35.303Z,85.60
2019-01-05T20:18:28.362Z,85.57
2019-01-05T20:21:34.439Z,85.57
2019-01-05T20:24:40.917Z,85.51
2019-01-05T20:27:35.181Z,85.48
2019-01-05T20:30:27.108Z,85.43
2019-01-05T20:33:17.386Z,85.40
2019-01-05T20:36:09.327Z,85.38
2019-01-05T20:38:59.412Z,85.35
2019-01-05T20:41:56.686Z,85.16
2019-01-05T20:44:46.756Z,85.06
2019-01-05T20:47:36.620Z,85.00
2019-01-05T20:50:34.078Z,84.96
2019-01-05T20:53:41.591Z,84.89
2019-01-05T20:56:33.707Z,84.84
2019-01-05T20:59:43.258Z,84.82
2019-01-05T21:02:40.427Z,84.78
2019-01-05T21:05:43.965Z,84.80
2019-01-05T21:08:34.865Z,84.77
2019-01-05T21:11:38.445Z,84.75
2019-01-05T21:14:29.633Z,84.69
2019-01-05T21:17:19.478Z,84.69
2019-01-05T21:20:18.724Z,84.70
2019-01-05T21:23:20.684Z,84.67
2019-01-05T21:26:27.326Z,84.67
2019-01-05T21:29:24.945Z,84.71
2019-01-05T21:32:15.055Z,84.73
2019-01-05T21:35:05.209Z,84.72
2019-01-05T21:37:48.518Z,84.70
2019-01-05T21:40:38.493Z,84.70
2019-01-05T21:43:25.425Z,84.70
2019-01-05T21:46:32.836Z,84.70
2019-01-05T21:49:27.072Z,84.72
2019-01-05T21:52:33.993Z,84.72
2019-01-05T21:55:31.800Z,84.70
2019-01-05T21:58:26.250Z,84.70
2019-01-05T22:01:26.007Z,84.70
2019-01-05T22:04:15.728Z,84.70
2019-01-05T22:07:06.142Z,84.67
2019-01-05T22:10:12.772Z,84.69
2019-01-05T22:13:02.975Z,84.66
2019-01-05T22:15:53.103Z,84.69
2019-01-05T22:18:44.269Z,84.69
2019-01-05T22:21:53.981Z,84.73
2019-01-05T22:24:48.284Z,84.72
2019-01-05T22:27:36.289Z,84.77
2019-01-05T22:30:27.756Z,84.82
2019-01-05T22:33:22.174Z,84.85
2019-01-05T22:36:19.254Z,84.90
2019-01-05T22:39:12.371Z,84.93
2019-01-05T22:42:06.167Z,85.00
2019-01-05T22:45:04.793Z,85.03
2019-01-05T22:47:56.371Z,85.04
2019-01-05T22:50:53.401Z,85.09
2019-01-05T22:53:43.287Z,85.16
2019-01-05T22:56:31.728Z,85.22
2019-01-05T22:59:21.519Z,85.28
2019-01-05T23:02:12.682Z,85.30
2019-01-05T23:05:15.794Z,85.33
2019-01-05T23:08:09.727Z,85.40
2019-01-05T23:11:12.554Z,85.43
2019-01-05T23:14:21.373Z,85.50
2019-01-05T23:17:11.385Z,85.56
2019-01-05T23:20:08.567Z,85.63
2019-01-05T23:23:03.032Z,85.75
2019-01-05T23:25:50.800Z,85.80
2019-01-05T23:28:51.350Z,85.84
2019-01-05T23:31:43.970Z,85.91
2019-01-05T23:34:30.698Z,85.97
2019-01-05T23:37:40.557Z,86.04
2019-01-05T23:40:37.911Z,86.04
2019-01-05T23:43:38.590Z,86.09
2019-01-05T23:46:27.336Z,86.13
2019-01-05T23:49:18.898Z,86.17
2019-01-05T23:52:14.610Z,86.23
2019-01-05T23:55:04.696Z,86.25
2019-01-05T23:57:54.891Z,86.27
